createdAt,value
2022-10-24T00:05:41.241Z,13.44
2022-10-24T00:15:48.011Z,13.46
2022-10-24T00:25:49.594Z,13.47
2022-10-24T00:36:25.050Z,13.51
2022-10-24T00:46:26.660Z,13.43
2022-10-24T00:56:32.375Z,13.43
2022-10-24T01:06:50.270Z,13.40
2022-10-24T01:17:01.765Z,13.33
2022-10-24T01:27:45.348Z,13.39
2022-10-24T01:38:16.715Z,13.42
2022-10-24T01:48:22.485Z,13.35
2022-10-24T01:58:24.702Z,13.31
2022-10-24T02:08:33.921Z,13.34
2022-10-24T02:18:35.795Z,13.29
2022-10-24T02:28:43.478Z,13.24
2022-10-24T02:38:47.886Z,13.16
2022-10-24T02:49:09.682Z,13.09
2022-10-24T02:59:12.324Z,13.10
2022-10-24T03:09:16.854Z,13.08
2022-10-24T03:19:20.208Z,13.02
2022-10-24T03:29:24.334Z,12.98
2022-10-24T03:39:27.450Z,12.93
2022-10-24T03:49:31.305Z,12.85
2022-10-24T03:59:32.946Z,12.78
2022-10-24T04:09:35.745Z,12.72
2022-10-24T04:19:38.468Z,12.70
2022-10-24T04:29:40.072Z,12.67
2022-10-24T04:39:41.663Z,12.52
2022-10-24T04:49:45.353Z,12.53
2022-10-24T04:59:48.718Z,12.45
2022-10-24T05:09:50.364Z,12.32
2022-10-24T05:19:54.174Z,12.28
2022-10-24T05:29:56.093Z,12.34
2022-10-24T05:40:00.062Z,12.24
2022-10-24T05:50:01.999Z,12.30
2022-10-24T06:00:06.613Z,12.30
2022-10-24T06:10:11.288Z,12.31
2022-10-24T06:20:12.975Z,12.35
2022-10-24T06:30:14.613Z,12.46
2022-10-24T06:40:18.084Z,12.46
2022-10-24T06:50:20.816Z,12.50
2022-10-24T07:00:22.522Z,12.72
2022-10-24T07:10:26.276Z,12.93
2022-10-24T07:20:28.003Z,13.24
2022-10-24T07:30:30.689Z,13.32
2022-10-24T07:40:32.189Z,13.23
2022-10-24T07:50:34.815Z,12.85
2022-10-24T08:00:39.035Z,12.83
2022-10-24T08:10:42.845Z,12.79
2022-10-24T08:20:44.639Z,12.87
2022-10-24T08:31:10.392Z,13.00
2022-10-24T08:41:24.082Z,13.32
2022-10-24T08:51:42.184Z,13.61
2022-10-24T09:01:48.363Z,14.27
2022-10-24T09:12:04.251Z,14.54
2022-10-24T09:22:07.894Z,14.55
2022-10-24T09:32:26.961Z,14.31
2022-10-24T09:42:28.799Z,14.31
2022-10-24T09:52:51.310Z,14.13
2022-10-24T10:03:07.440Z,14.00
2022-10-24T10:13:12.880Z,14.08
2022-10-24T10:23:29.237Z,14.23
2022-10-24T10:33:56.772Z,14.38
2022-10-24T10:44:34.725Z,14.91
2022-10-24T10:55:05.830Z,14.98
2022-10-24T11:05:32.691Z,15.37
2022-10-24T11:15:40.786Z,15.82
2022-10-24T11:25:47.709Z,15.98
2022-10-24T11:36:11.091Z,15.67
2022-10-24T11:46:32.861Z,15.60
2022-10-24T11:56:42.280Z,16.54
2022-10-24T12:07:07.662Z,15.88
2022-10-24T12:17:24.212Z,15.86
2022-10-24T12:27:35.658Z,15.64
2022-10-24T12:37:40.265Z,15.35
2022-10-24T12:48:04.661Z,15.62
2022-10-24T12:58:30.829Z,15.11
2022-10-24T13:09:03.877Z,15.57
2022-10-24T13:19:17.281Z,15.50
2022-10-24T13:29:22.116Z,15.70
2022-10-24T13:39:27.958Z,16.10
2022-10-24T13:49:49.769Z,15.75
2022-10-24T13:59:57.521Z,15.25
2022-10-24T14:10:09.976Z,15.22
2022-10-24T14:20:12.403Z,14.93
2022-10-24T14:30:19.997Z,14.81
2022-10-24T14:40:22.782Z,14.69
2022-10-24T14:50:41.032Z,14.76
2022-10-24T15:00:48.049Z,14.72
2022-10-24T15:10:52.001Z,14.69
2022-10-24T15:21:08.586Z,14.67
2022-10-24T15:31:11.805Z,14.61
2022-10-24T15:41:13.612Z,14.53
2022-10-24T15:51:21.427Z,14.28
2022-10-24T16:01:38.445Z,14.09
2022-10-24T16:11:42.157Z,14.07
2022-10-24T16:21:45.145Z,14.10
2022-10-24T16:31:49.140Z,14.08
2022-10-24T16:41:56.576Z,14.11
2022-10-24T16:51:59.244Z,14.09
2022-10-24T17:02:01.393Z,14.04
2022-10-24T17:12:03.648Z,13.93
2022-10-24T17:22:06.651Z,13.73
2022-10-24T17:32:13.134Z,13.50
2022-10-24T17:42:15.317Z,13.43
2022-10-24T17:52:23.200Z,13.20
2022-10-24T18:02:25.304Z,12.99
2022-10-24T18:12:30.181Z,12.74
2022-10-24T18:22:35.302Z,12.46
2022-10-24T18:32:38.898Z,12.40
2022-10-24T18:42:44.283Z,12.09
2022-10-24T18:53:22.372Z,11.94
2022-10-24T19:03:25.366Z,11.83
2022-10-24T19:13:29.808Z,11.88
2022-10-24T19:23:31.801Z,11.88
2022-10-24T19:33:33.908Z,11.80
2022-10-24T19:43:41.440Z,11.65
2022-10-24T19:53:46.899Z,11.65
2022-10-24T20:03:58.669Z,11.76
2022-10-24T20:14:06.398Z,11.82
2022-10-24T20:24:08.951Z,11.82
2022-10-24T20:34:12.290Z,11.77
2022-10-24T20:44:21.837Z,11.85
2022-10-24T20:54:25.632Z,11.94
2022-10-24T21:04:29.543Z,12.02
2022-10-24T21:14:31.159Z,12.17
2022-10-24T21:24:33.832Z,12.22
2022-10-24T21:34:39.510Z,12.42
2022-10-24T21:44:42.162Z,12.47
2022-10-24T21:54:43.827Z,12.48
2022-10-24T22:04:47.053Z,12.56
2022-10-24T22:14:51.351Z,12.69
2022-10-24T22:25:02.123Z,12.66
2022-10-24T22:35:04.174Z,12.66
2022-10-24T22:45:12.741Z,12.80
2022-10-24T22:55:21.988Z,12.93
2022-10-24T23:05:43.309Z,12.94
2022-10-24T23:15:45.049Z,12.93
2022-10-24T23:26:17.271Z,12.99
2022-10-24T23:36:25.041Z,12.81
2022-10-24T23:46:37.451Z,12.77
2022-10-24T23:56:42.178Z,12.78
